sensor_id;sensor_type;location;lat;lon;timestamp;temperature;humidity
25320;DHT22;13256;49.012;8.610;2022-08-25T00:01:38;21.20;99.90
25320;DHT22;13256;49.012;8.610;2022-08-25T00:07:04;21.10;99.90
25320;DHT22;13256;49.012;8.610;2022-08-25T00:13:03;21.00;99.90
25320;DHT22;13256;49.012;8.610;2022-08-25T00:15:30;20.90;99.90
25320;DHT22;13256;49.012;8.610;2022-08-25T00:17:58;20.80;99.90
25320;DHT22;13256;49.012;8.610;2022-08-25T00:20:26;20.70;99.90
25320;DHT22;13256;49.012;8.610;2022-08-25T00:22:53;20.60;99.90
25320;DHT22;13256;49.012;8.610;2022-08-25T00:25:22;20.60;99.90
25320;DHT22;13256;49.012;8.610;2022-08-25T00:27:49;20.50;99.90
25320;DHT22;13256;49.012;8.610;2022-08-25T00:30:19;20.60;99.90
25320;DHT22;13256;49.012;8.610;2022-08-25T00:32:46;20.60;99.90
25320;DHT22;13256;49.012;8.610;2022-08-25T00:35:25;20.60;99.90
25320;DHT22;13256;49.012;8.610;2022-08-25T00:37:54;20.60;99.90
25320;DHT22;13256;49.012;8.610;2022-08-25T00:40:22;20.60;99.90
25320;DHT22;13256;49.012;8.610;2022-08-25T00:42:50;20.60;99.90
25320;DHT22;13256;49.012;8.610;2022-08-25T00:45:19;20.50;99.90
25320;DHT22;13256;49.012;8.610;2022-08-25T00:47:46;20.50;99.90
25320;DHT22;13256;49.012;8.610;2022-08-25T00:50:23;20.40;99.90
25320;DHT22;13256;49.012;8.610;2022-08-25T00:52:59;20.30;99.90
25320;DHT22;13256;49.012;8.610;2022-08-25T00:55:32;20.20;99.90
25320;DHT22;13256;49.012;8.610;2022-08-25T00:58:04;20.20;99.90
25320;DHT22;13256;49.012;8.610;2022-08-25T01:00:43;20.10;99.90
25320;DHT22;13256;49.012;8.610;2022-08-25T01:03:12;20.10;99.90
25320;DHT22;13256;49.012;8.610;2022-08-25T01:05:45;20.00;99.90
25320;DHT22;13256;49.012;8.610;2022-08-25T01:08:12;19.90;99.90
25320;DHT22;13256;49.012;8.610;2022-08-25T01:10:50;19.90;99.90
25320;DHT22;13256;49.012;8.610;2022-08-25T01:13:25;19.80;99.90
25320;DHT22;13256;49.012;8.610;2022-08-25T01:15:56;19.80;99.90
25320;DHT22;13256;49.012;8.610;2022-08-25T01:18:25;19.70;99.90
25320;DHT22;13256;49.012;8.610;2022-08-25T01:20:54;19.60;99.90
25320;DHT22;13256;49.012;8.610;2022-08-25T01:23:22;19.50;99.90
25320;DHT22;13256;49.012;8.610;2022-08-25T01:26:04;19.50;99.90
25320;DHT22;13256;49.012;8.610;2022-08-25T01:28:31;19.40;99.90
25320;DHT22;13256;49.012;8.610;2022-08-25T01:31:00;19.30;99.90
25320;DHT22;13256;49.012;8.610;2022-08-25T01:33:27;19.20;99.90
25320;DHT22;13256;49.012;8.610;2022-08-25T01:35:57;19.20;99.90
25320;DHT22;13256;49.012;8.610;2022-08-25T01:38:23;19.10;99.90
25320;DHT22;13256;49.012;8.610;2022-08-25T01:40:52;19.10;99.90
25320;DHT22;13256;49.012;8.610;2022-08-25T01:43:30;19.10;99.90
25320;DHT22;13256;49.012;8.610;2022-08-25T01:46:01;19.00;99.90
25320;DHT22;13256;49.012;8.610;2022-08-25T01:48:30;19.00;99.90
25320;DHT22;13256;49.012;8.610;2022-08-25T01:50:58;18.90;99.90
25320;DHT22;13256;49.012;8.610;2022-08-25T01:53:29;18.80;99.90
25320;DHT22;13256;49.012;8.610;2022-08-25T01:56:13;18.80;99.90
25320;DHT22;13256;49.012;8.610;2022-08-25T01:58:43;18.80;99.90
25320;DHT22;13256;49.012;8.610;2022-08-25T02:01:17;18.80;99.90
25320;DHT22;13256;49.012;8.610;2022-08-25T02:03:47;18.80;99.90
25320;DHT22;13256;49.012;8.610;2022-08-25T02:06:20;18.80;99.90
25320;DHT22;13256;49.012;8.610;2022-08-25T02:08:59;18.90;99.90
25320;DHT22;13256;49.012;8.610;2022-08-25T02:11:27;18.80;99.90
25320;DHT22;13256;49.012;8.610;2022-08-25T02:13:54;18.80;99.90
25320;DHT22;13256;49.012;8.610;2022-08-25T02:16:28;18.80;99.90
25320;DHT22;13256;49.012;8.610;2022-08-25T02:18:55;18.70;99.90
25320;DHT22;13256;49.012;8.610;2022-08-25T02:21:22;18.60;99.90
25320;DHT22;13256;49.012;8.610;2022-08-25T02:23:49;18.50;99.90
25320;DHT22;13256;49.012;8.610;2022-08-25T02:26:16;18.50;99.90
25320;DHT22;13256;49.012;8.610;2022-08-25T02:28:46;18.40;99.90
25320;DHT22;13256;49.012;8.610;2022-08-25T02:31:14;18.40;99.90
25320;DHT22;13256;49.012;8.610;2022-08-25T02:33:42;18.30;99.90
25320;DHT22;13256;49.012;8.610;2022-08-25T02:36:12;18.30;99.90
25320;DHT22;13256;49.012;8.610;2022-08-25T02:38:41;18.30;99.90
25320;DHT22;13256;49.012;8.610;2022-08-25T02:41:11;18.40;99.90
25320;DHT22;13256;49.012;8.610;2022-08-25T02:43:46;18.50;99.90
25320;DHT22;13256;49.012;8.610;2022-08-25T02:55:06;18.40;99.90
25320;DHT22;13256;49.012;8.610;2022-08-25T02:57:36;18.40;99.90
25320;DHT22;13256;49.012;8.610;2022-08-25T03:00:04;18.30;99.90
25320;DHT22;13256;49.012;8.610;2022-08-25T03:02:31;18.20;99.90
25320;DHT22;13256;49.012;8.610;2022-08-25T03:04:58;18.20;99.90
25320;DHT22;13256;49.012;8.610;2022-08-25T03:07:27;18.20;99.90
25320;DHT22;13256;49.012;8.610;2022-08-25T03:10:21;18.10;99.90
25320;DHT22;13256;49.012;8.610;2022-08-25T03:12:54;18.10;99.90
25320;DHT22;13256;49.012;8.610;2022-08-25T03:15:23;18.00;99.90
25320;DHT22;13256;49.012;8.610;2022-08-25T03:18:22;18.00;99.90
25320;DHT22;13256;49.012;8.610;2022-08-25T03:20:50;17.90;99.90
25320;DHT22;13256;49.012;8.610;2022-08-25T03:23:20;17.80;99.90
25320;DHT22;13256;49.012;8.610;2022-08-25T03:25:57;17.80;99.90
25320;DHT22;13256;49.012;8.610;2022-08-25T03:28:49;17.80;99.90
25320;DHT22;13256;49.012;8.610;2022-08-25T03:31:18;17.70;99.90
25320;DHT22;13256;49.012;8.610;2022-08-25T03:33:45;17.70;99.90
25320;DHT22;13256;49.012;8.610;2022-08-25T03:36:12;17.70;99.90
25320;DHT22;13256;49.012;8.610;2022-08-25T03:38:41;17.70;99.90
25320;DHT22;13256;49.012;8.610;2022-08-25T03:43:49;17.60;99.90
25320;DHT22;13256;49.012;8.610;2022-08-25T03:46:22;17.60;99.90
25320;DHT22;13256;49.012;8.610;2022-08-25T03:48:49;17.50;99.90
25320;DHT22;13256;49.012;8.610;2022-08-25T03:51:25;17.50;99.90
25320;DHT22;13256;49.012;8.610;2022-08-25T03:53:52;17.40;99.90
25320;DHT22;13256;49.012;8.610;2022-08-25T03:56:32;17.30;99.90
25320;DHT22;13256;49.012;8.610;2022-08-25T03:59:26;17.30;99.90
25320;DHT22;13256;49.012;8.610;2022-08-25T04:01:53;17.30;99.90
25320;DHT22;13256;49.012;8.610;2022-08-25T04:04:25;17.30;99.90
25320;DHT22;13256;49.012;8.610;2022-08-25T04:06:52;17.30;99.90
25320;DHT22;13256;49.012;8.610;2022-08-25T04:09:24;17.30;99.90
25320;DHT22;13256;49.012;8.610;2022-08-25T04:11:51;17.30;99.90
25320;DHT22;13256;49.012;8.610;2022-08-25T04:14:20;17.30;99.90
25320;DHT22;13256;49.012;8.610;2022-08-25T04:16:50;17.30;99.90
25320;DHT22;13256;49.012;8.610;2022-08-25T04:19:21;17.40;99.90
25320;DHT22;13256;49.012;8.610;2022-08-25T04:21:48;17.50;99.90
25320;DHT22;13256;49.012;8.610;2022-08-25T04:24:15;17.50;99.90
25320;DHT22;13256;49.012;8.610;2022-08-25T04:26:47;17.60;99.90
25320;DHT22;13256;49.012;8.610;2022-08-25T04:29:19;17.70;99.90
25320;DHT22;13256;49.012;8.610;2022-08-25T04:31:50;17.80;99.90
25320;DHT22;13256;49.012;8.610;2022-08-25T04:34:21;17.80;99.90
25320;DHT22;13256;49.012;8.610;2022-08-25T04:36:59;17.90;99.90
25320;DHT22;13256;49.012;8.610;2022-08-25T04:39:26;17.90;99.90
25320;DHT22;13256;49.012;8.610;2022-08-25T04:41:53;18.00;99.90
25320;DHT22;13256;49.012;8.610;2022-08-25T04:44:22;18.00;99.90
25320;DHT22;13256;49.012;8.610;2022-08-25T04:46:51;17.90;99.90
25320;DHT22;13256;49.012;8.610;2022-08-25T04:49:20;17.80;99.90
25320;DHT22;13256;49.012;8.610;2022-08-25T04:51:53;17.70;99.90
25320;DHT22;13256;49.012;8.610;2022-08-25T04:54:23;17.70;99.90
25320;DHT22;13256;49.012;8.610;2022-08-25T04:56:51;17.60;99.90
25320;DHT22;13256;49.012;8.610;2022-08-25T04:59:24;17.70;99.90
25320;DHT22;13256;49.012;8.610;2022-08-25T05:01:58;17.60;99.90
25320;DHT22;13256;49.012;8.610;2022-08-25T05:04:33;17.60;99.90
25320;DHT22;13256;49.012;8.610;2022-08-25T05:07:00;17.60;99.90
25320;DHT22;13256;49.012;8.610;2022-08-25T05:09:27;17.50;99.90
25320;DHT22;13256;49.012;8.610;2022-08-25T05:11:54;17.50;99.90
25320;DHT22;13256;49.012;8.610;2022-08-25T05:14:21;17.40;99.90
25320;DHT22;13256;49.012;8.610;2022-08-25T05:16:56;17.40;99.90
25320;DHT22;13256;49.012;8.610;2022-08-25T05:19:33;17.40;99.90
25320;DHT22;13256;49.012;8.610;2022-08-25T05:22:01;17.30;99.90
25320;DHT22;13256;49.012;8.610;2022-08-25T05:24:28;17.30;99.90
25320;DHT22;13256;49.012;8.610;2022-08-25T05:26:55;17.20;99.90
25320;DHT22;13256;49.012;8.610;2022-08-25T05:29:22;17.20;99.90
25320;DHT22;13256;49.012;8.610;2022-08-25T05:31:49;17.20;99.90
25320;DHT22;13256;49.012;8.610;2022-08-25T05:34:17;17.20;99.90
25320;DHT22;13256;49.012;8.610;2022-08-25T05:36:52;17.30;99.90
25320;DHT22;13256;49.012;8.610;2022-08-25T05:39:22;17.30;99.90
25320;DHT22;13256;49.012;8.610;2022-08-25T05:41:50;17.40;99.90
25320;DHT22;13256;49.012;8.610;2022-08-25T05:44:16;17.50;99.90
25320;DHT22;13256;49.012;8.610;2022-08-25T05:46:47;17.60;99.90
25320;DHT22;13256;49.012;8.610;2022-08-25T05:49:15;17.60;99.90
25320;DHT22;13256;49.012;8.610;2022-08-25T05:51:47;17.80;99.90
25320;DHT22;13256;49.012;8.610;2022-08-25T05:54:16;17.90;99.90
25320;DHT22;13256;49.012;8.610;2022-08-25T05:56:47;18.00;99.90
25320;DHT22;13256;49.012;8.610;2022-08-25T05:59:13;18.10;99.90
25320;DHT22;13256;49.012;8.610;2022-08-25T06:01:40;18.20;99.90
25320;DHT22;13256;49.012;8.610;2022-08-25T06:05:07;18.30;99.90
25320;DHT22;13256;49.012;8.610;2022-08-25T06:07:37;18.40;99.90
25320;DHT22;13256;49.012;8.610;2022-08-25T06:10:08;18.60;99.90
25320;DHT22;13256;49.012;8.610;2022-08-25T06:13:03;18.70;99.90
25320;DHT22;13256;49.012;8.610;2022-08-25T06:15:33;18.80;99.90
25320;DHT22;13256;49.012;8.610;2022-08-25T06:18:39;18.90;99.90
25320;DHT22;13256;49.012;8.610;2022-08-25T06:21:14;19.00;99.90
25320;DHT22;13256;49.012;8.610;2022-08-25T06:23:41;19.10;99.90
25320;DHT22;13256;49.012;8.610;2022-08-25T06:26:12;19.20;99.90
25320;DHT22;13256;49.012;8.610;2022-08-25T06:28:49;19.40;99.90
25320;DHT22;13256;49.012;8.610;2022-08-25T06:31:19;19.50;99.90
25320;DHT22;13256;49.012;8.610;2022-08-25T06:33:52;19.60;99.90
25320;DHT22;13256;49.012;8.610;2022-08-25T06:36:21;19.70;99.90
25320;DHT22;13256;49.012;8.610;2022-08-25T06:38:53;19.80;99.90
25320;DHT22;13256;49.012;8.610;2022-08-25T06:41:20;19.90;99.90
25320;DHT22;13256;49.012;8.610;2022-08-25T06:43:51;20.00;99.90
25320;DHT22;13256;49.012;8.610;2022-08-25T06:46:27;20.10;99.90
25320;DHT22;13256;49.012;8.610;2022-08-25T06:49:05;20.30;99.90
25320;DHT22;13256;49.012;8.610;2022-08-25T06:51:32;20.50;99.90
25320;DHT22;13256;49.012;8.610;2022-08-25T06:54:01;20.60;99.90
25320;DHT22;13256;49.012;8.610;2022-08-25T06:56:28;20.80;99.90
25320;DHT22;13256;49.012;8.610;2022-08-25T06:58:57;21.00;99.90
25320;DHT22;13256;49.012;8.610;2022-08-25T07:01:26;21.10;99.90
25320;DHT22;13256;49.012;8.610;2022-08-25T07:03:56;21.20;99.90
25320;DHT22;13256;49.012;8.610;2022-08-25T07:06:29;21.30;99.90
25320;DHT22;13256;49.012;8.610;2022-08-25T07:09:02;21.50;99.90
25320;DHT22;13256;49.012;8.610;2022-08-25T07:11:29;21.70;99.90
25320;DHT22;13256;49.012;8.610;2022-08-25T07:14:01;21.90;99.90
25320;DHT22;13256;49.012;8.610;2022-08-25T07:16:28;22.00;99.90
25320;DHT22;13256;49.012;8.610;2022-08-25T07:19:00;22.10;99.90
25320;DHT22;13256;49.012;8.610;2022-08-25T07:21:56;22.30;99.90
25320;DHT22;13256;49.012;8.610;2022-08-25T07:24:28;22.50;99.90
25320;DHT22;13256;49.012;8.610;2022-08-25T07:26:59;22.70;99.90
25320;DHT22;13256;49.012;8.610;2022-08-25T07:29:27;22.90;99.90
25320;DHT22;13256;49.012;8.610;2022-08-25T07:32:01;23.00;99.90
25320;DHT22;13256;49.012;8.610;2022-08-25T07:34:28;23.20;99.90
25320;DHT22;13256;49.012;8.610;2022-08-25T07:37:20;23.30;99.90
25320;DHT22;13256;49.012;8.610;2022-08-25T07:40:09;23.40;99.90
25320;DHT22;13256;49.012;8.610;2022-08-25T07:42:36;23.60;99.90
25320;DHT22;13256;49.012;8.610;2022-08-25T07:45:16;23.70;99.90
25320;DHT22;13256;49.012;8.610;2022-08-25T07:47:47;23.90;99.90
25320;DHT22;13256;49.012;8.610;2022-08-25T07:50:19;24.00;99.90
25320;DHT22;13256;49.012;8.610;2022-08-25T07:52:48;24.20;99.90
25320;DHT22;13256;49.012;8.610;2022-08-25T07:55:24;24.40;99.90
25320;DHT22;13256;49.012;8.610;2022-08-25T07:57:52;24.60;99.90
25320;DHT22;13256;49.012;8.610;2022-08-25T08:00:29;24.80;99.90
25320;DHT22;13256;49.012;8.610;2022-08-25T08:03:07;24.90;99.90
25320;DHT22;13256;49.012;8.610;2022-08-25T08:05:50;25.00;99.90
25320;DHT22;13256;49.012;8.610;2022-08-25T08:08:17;25.10;99.90
25320;DHT22;13256;49.012;8.610;2022-08-25T08:10:47;25.30;99.90
25320;DHT22;13256;49.012;8.610;2022-08-25T08:13:32;25.40;99.90
25320;DHT22;13256;49.012;8.610;2022-08-25T08:16:09;25.60;99.90
25320;DHT22;13256;49.012;8.610;2022-08-25T08:18:40;25.70;99.90
25320;DHT22;13256;49.012;8.610;2022-08-25T08:21:13;25.80;99.90
25320;DHT22;13256;49.012;8.610;2022-08-25T08:23:50;25.90;99.90
25320;DHT22;13256;49.012;8.610;2022-08-25T08:26:25;26.00;99.90
25320;DHT22;13256;49.012;8.610;2022-08-25T08:29:12;26.00;99.90
25320;DHT22;13256;49.012;8.610;2022-08-25T08:31:40;26.20;99.90
25320;DHT22;13256;49.012;8.610;2022-08-25T08:34:18;26.30;99.90
25320;DHT22;13256;49.012;8.610;2022-08-25T08:36:44;26.50;99.90
25320;DHT22;13256;49.012;8.610;2022-08-25T08:39:12;26.60;99.90
25320;DHT22;13256;49.012;8.610;2022-08-25T08:56:10;27.70;99.60
25320;DHT22;13256;49.012;8.610;2022-08-25T09:07:20;27.90;97.50
25320;DHT22;13256;49.012;8.610;2022-08-25T09:09:49;28.00;97.20
25320;DHT22;13256;49.012;8.610;2022-08-25T09:12:35;28.10;96.90
25320;DHT22;13256;49.012;8.610;2022-08-25T09:15:16;28.20;96.30
25320;DHT22;13256;49.012;8.610;2022-08-25T09:20:53;28.60;95.50
25320;DHT22;13256;49.012;8.610;2022-08-25T09:26:11;29.00;94.30
25320;DHT22;13256;49.012;8.610;2022-08-25T09:28:50;29.20;94.10
25320;DHT22;13256;49.012;8.610;2022-08-25T09:31:26;29.30;92.90
25320;DHT22;13256;49.012;8.610;2022-08-25T09:34:01;29.20;93.50
25320;DHT22;13256;49.012;8.610;2022-08-25T09:36:36;29.40;92.60
25320;DHT22;13256;49.012;8.610;2022-08-25T09:39:05;29.50;91.80
25320;DHT22;13256;49.012;8.610;2022-08-25T09:49:42;29.70;90.50
25320;DHT22;13256;49.012;8.610;2022-08-25T09:52:28;29.70;90.50
25320;DHT22;13256;49.012;8.610;2022-08-25T09:57:47;30.10;89.60
25320;DHT22;13256;49.012;8.610;2022-08-25T10:00:33;30.00;88.20
25320;DHT22;13256;49.012;8.610;2022-08-25T10:03:20;30.20;86.90
25320;DHT22;13256;49.012;8.610;2022-08-25T10:06:16;30.50;86.30
25320;DHT22;13256;49.012;8.610;2022-08-25T10:11:48;30.70;83.70
25320;DHT22;13256;49.012;8.610;2022-08-25T10:14:16;30.50;83.40
25320;DHT22;13256;49.012;8.610;2022-08-25T10:16:44;30.60;85.20
25320;DHT22;13256;49.012;8.610;2022-08-25T10:19:26;30.70;83.30
25320;DHT22;13256;49.012;8.610;2022-08-25T10:22:09;30.80;83.80
25320;DHT22;13256;49.012;8.610;2022-08-25T10:24:39;31.10;82.70
25320;DHT22;13256;49.012;8.610;2022-08-25T10:27:27;31.30;82.00
25320;DHT22;13256;49.012;8.610;2022-08-25T10:38:17;31.90;75.00
25320;DHT22;13256;49.012;8.610;2022-08-25T10:41:08;31.90;74.50
25320;DHT22;13256;49.012;8.610;2022-08-25T10:53:10;32.30;73.00
25320;DHT22;13256;49.012;8.610;2022-08-25T11:04:37;32.70;71.60
25320;DHT22;13256;49.012;8.610;2022-08-25T11:09:48;32.40;71.60
25320;DHT22;13256;49.012;8.610;2022-08-25T11:12:41;32.70;69.90
25320;DHT22;13256;49.012;8.610;2022-08-25T11:15:09;32.90;68.80
25320;DHT22;13256;49.012;8.610;2022-08-25T11:17:57;33.10;68.20
25320;DHT22;13256;49.012;8.610;2022-08-25T11:20:35;33.20;68.60
25320;DHT22;13256;49.012;8.610;2022-08-25T11:23:10;33.10;67.00
25320;DHT22;13256;49.012;8.610;2022-08-25T11:25:42;33.20;67.20
25320;DHT22;13256;49.012;8.610;2022-08-25T11:29:17;33.50;64.70
25320;DHT22;13256;49.012;8.610;2022-08-25T11:31:20;33.70;64.20
25320;DHT22;13256;49.012;8.610;2022-08-25T11:33:50;33.60;64.40
25320;DHT22;13256;49.012;8.610;2022-08-25T11:36:37;33.70;63.20
25320;DHT22;13256;49.012;8.610;2022-08-25T11:39:58;33.80;63.50
25320;DHT22;13256;49.012;8.610;2022-08-25T11:48:39;34.00;62.70
25320;DHT22;13256;49.012;8.610;2022-08-25T11:51:12;34.60;61.40
25320;DHT22;13256;49.012;8.610;2022-08-25T11:54:27;34.70;60.60
25320;DHT22;13256;49.012;8.610;2022-08-25T11:57:05;34.60;60.50
25320;DHT22;13256;49.012;8.610;2022-08-25T12:02:29;34.80;60.20
25320;DHT22;13256;49.012;8.610;2022-08-25T12:04:56;34.50;62.30
25320;DHT22;13256;49.012;8.610;2022-08-25T12:08:10;34.30;61.90
25320;DHT22;13256;49.012;8.610;2022-08-25T12:33:27;35.50;59.00
25320;DHT22;13256;49.012;8.610;2022-08-25T12:36:06;35.80;58.80
25320;DHT22;13256;49.012;8.610;2022-08-25T12:38:45;35.90;58.20
25320;DHT22;13256;49.012;8.610;2022-08-25T12:41:21;36.20;57.50
25320;DHT22;13256;49.012;8.610;2022-08-25T12:43:52;36.30;56.10
25320;DHT22;13256;49.012;8.610;2022-08-25T12:54:19;35.80;56.80
25320;DHT22;13256;49.012;8.610;2022-08-25T12:56:56;35.80;56.20
25320;DHT22;13256;49.012;8.610;2022-08-25T12:59:31;35.60;57.00
25320;DHT22;13256;49.012;8.610;2022-08-25T13:16:25;35.10;56.40
25320;DHT22;13256;49.012;8.610;2022-08-25T13:19:22;34.70;57.00
25320;DHT22;13256;49.012;8.610;2022-08-25T13:21:50;34.60;57.80
25320;DHT22;13256;49.012;8.610;2022-08-25T13:24:33;34.80;58.30
25320;DHT22;13256;49.012;8.610;2022-08-25T13:27:08;35.10;56.70
25320;DHT22;13256;49.012;8.610;2022-08-25T13:29:52;35.10;57.20
25320;DHT22;13256;49.012;8.610;2022-08-25T13:32:31;34.60;56.30
25320;DHT22;13256;49.012;8.610;2022-08-25T13:35:21;34.50;56.70
25320;DHT22;13256;49.012;8.610;2022-08-25T13:37:51;34.20;57.10
25320;DHT22;13256;49.012;8.610;2022-08-25T13:43:03;34.20;57.80
25320;DHT22;13256;49.012;8.610;2022-08-25T13:45:34;34.50;57.40
25320;DHT22;13256;49.012;8.610;2022-08-25T13:48:13;34.60;57.20
25320;DHT22;13256;49.012;8.610;2022-08-25T13:50:52;34.70;56.30
25320;DHT22;13256;49.012;8.610;2022-08-25T13:53:34;34.50;56.30
25320;DHT22;13256;49.012;8.610;2022-08-25T13:56:02;34.30;56.90
25320;DHT22;13256;49.012;8.610;2022-08-25T13:58:34;33.90;57.00
25320;DHT22;13256;49.012;8.610;2022-08-25T14:01:21;33.60;58.00
25320;DHT22;13256;49.012;8.610;2022-08-25T14:04:47;33.40;57.50
25320;DHT22;13256;49.012;8.610;2022-08-25T14:09:59;33.50;57.10
25320;DHT22;13256;49.012;8.610;2022-08-25T14:17:36;33.60;57.00
25320;DHT22;13256;49.012;8.610;2022-08-25T14:20:33;33.60;58.30
25320;DHT22;13256;49.012;8.610;2022-08-25T14:23:07;33.70;57.40
25320;DHT22;13256;49.012;8.610;2022-08-25T14:26:02;33.80;57.40
25320;DHT22;13256;49.012;8.610;2022-08-25T14:28:30;34.20;57.70
25320;DHT22;13256;49.012;8.610;2022-08-25T14:30:59;34.40;56.50
25320;DHT22;13256;49.012;8.610;2022-08-25T14:33:35;34.50;55.60
25320;DHT22;13256;49.012;8.610;2022-08-25T14:36:05;34.60;55.80
25320;DHT22;13256;49.012;8.610;2022-08-25T14:38:38;34.70;55.60
25320;DHT22;13256;49.012;8.610;2022-08-25T14:41:07;34.90;56.40
25320;DHT22;13256;49.012;8.610;2022-08-25T14:43:41;35.10;54.50
25320;DHT22;13256;49.012;8.610;2022-08-25T14:46:16;35.20;54.80
25320;DHT22;13256;49.012;8.610;2022-08-25T14:48:52;35.40;54.30
25320;DHT22;13256;49.012;8.610;2022-08-25T14:51:27;35.50;53.00
25320;DHT22;13256;49.012;8.610;2022-08-25T14:54:02;35.60;53.30
25320;DHT22;13256;49.012;8.610;2022-08-25T14:56:30;35.70;52.90
25320;DHT22;13256;49.012;8.610;2022-08-25T14:58:58;35.70;52.70
25320;DHT22;13256;49.012;8.610;2022-08-25T15:01:32;35.60;52.60
25320;DHT22;13256;49.012;8.610;2022-08-25T15:04:08;35.50;52.70
25320;DHT22;13256;49.012;8.610;2022-08-25T15:07:03;35.30;52.80
25320;DHT22;13256;49.012;8.610;2022-08-25T15:09:53;35.40;52.70
25320;DHT22;13256;49.012;8.610;2022-08-25T15:12:19;35.40;52.80
25320;DHT22;13256;49.012;8.610;2022-08-25T15:15:13;35.50;52.40
25320;DHT22;13256;49.012;8.610;2022-08-25T15:17:43;35.40;52.50
25320;DHT22;13256;49.012;8.610;2022-08-25T15:20:15;35.30;51.00
25320;DHT22;13256;49.012;8.610;2022-08-25T15:22:45;35.30;50.80
25320;DHT22;13256;49.012;8.610;2022-08-25T15:25:13;35.00;51.10
25320;DHT22;13256;49.012;8.610;2022-08-25T15:27:40;34.90;51.40
25320;DHT22;13256;49.012;8.610;2022-08-25T15:30:13;34.90;51.90
25320;DHT22;13256;49.012;8.610;2022-08-25T15:32:42;34.80;51.30
25320;DHT22;13256;49.012;8.610;2022-08-25T15:35:11;34.70;51.30
25320;DHT22;13256;49.012;8.610;2022-08-25T15:37:44;34.60;51.70
25320;DHT22;13256;49.012;8.610;2022-08-25T15:40:14;34.60;51.00
25320;DHT22;13256;49.012;8.610;2022-08-25T15:42:43;34.30;52.20
25320;DHT22;13256;49.012;8.610;2022-08-25T15:45:12;34.00;53.20
25320;DHT22;13256;49.012;8.610;2022-08-25T15:47:39;33.90;53.60
25320;DHT22;13256;49.012;8.610;2022-08-25T15:50:12;33.80;54.60
25320;DHT22;13256;49.012;8.610;2022-08-25T15:52:40;33.80;53.80
25320;DHT22;13256;49.012;8.610;2022-08-25T15:55:16;33.80;53.60
25320;DHT22;13256;49.012;8.610;2022-08-25T15:57:43;33.60;53.40
25320;DHT22;13256;49.012;8.610;2022-08-25T16:00:12;33.60;54.80
25320;DHT22;13256;49.012;8.610;2022-08-25T16:02:45;33.50;54.10
25320;DHT22;13256;49.012;8.610;2022-08-25T16:05:19;33.40;53.20
25320;DHT22;13256;49.012;8.610;2022-08-25T16:07:52;33.20;54.20
25320;DHT22;13256;49.012;8.610;2022-08-25T16:10:19;33.20;53.90
25320;DHT22;13256;49.012;8.610;2022-08-25T16:12:48;33.10;54.10
25320;DHT22;13256;49.012;8.610;2022-08-25T16:15:15;32.90;54.40
25320;DHT22;13256;49.012;8.610;2022-08-25T16:17:42;32.80;55.10
25320;DHT22;13256;49.012;8.610;2022-08-25T16:20:46;32.60;55.20
25320;DHT22;13256;49.012;8.610;2022-08-25T16:23:17;32.60;55.80
25320;DHT22;13256;49.012;8.610;2022-08-25T16:25:45;32.40;56.20
25320;DHT22;13256;49.012;8.610;2022-08-25T16:28:15;32.40;56.40
25320;DHT22;13256;49.012;8.610;2022-08-25T16:30:46;32.20;55.60
25320;DHT22;13256;49.012;8.610;2022-08-25T16:33:19;32.10;55.50
25320;DHT22;13256;49.012;8.610;2022-08-25T16:35:49;32.10;55.80
25320;DHT22;13256;49.012;8.610;2022-08-25T16:38:15;32.00;55.40
25320;DHT22;13256;49.012;8.610;2022-08-25T16:40:44;31.90;55.60
25320;DHT22;13256;49.012;8.610;2022-08-25T16:43:12;31.80;55.20
25320;DHT22;13256;49.012;8.610;2022-08-25T16:45:43;31.70;55.00
25320;DHT22;13256;49.012;8.610;2022-08-25T16:48:09;31.70;55.40
25320;DHT22;13256;49.012;8.610;2022-08-25T16:50:38;31.60;56.30
25320;DHT22;13256;49.012;8.610;2022-08-25T16:53:05;31.60;56.10
25320;DHT22;13256;49.012;8.610;2022-08-25T16:55:59;31.50;56.00
25320;DHT22;13256;49.012;8.610;2022-08-25T16:58:26;31.40;56.10
25320;DHT22;13256;49.012;8.610;2022-08-25T17:01:03;31.30;56.30
25320;DHT22;13256;49.012;8.610;2022-08-25T17:03:33;31.30;56.60
25320;DHT22;13256;49.012;8.610;2022-08-25T17:06:01;31.20;56.50
25320;DHT22;13256;49.012;8.610;2022-08-25T17:08:28;31.10;57.10
25320;DHT22;13256;49.012;8.610;2022-08-25T17:11:23;31.10;57.30
25320;DHT22;13256;49.012;8.610;2022-08-25T17:13:54;31.00;57.90
25320;DHT22;13256;49.012;8.610;2022-08-25T17:16:26;30.90;58.20
25320;DHT22;13256;49.012;8.610;2022-08-25T17:19:02;30.90;58.40
25320;DHT22;13256;49.012;8.610;2022-08-25T17:21:34;30.80;58.40
25320;DHT22;13256;49.012;8.610;2022-08-25T17:24:03;30.80;58.50
25320;DHT22;13256;49.012;8.610;2022-08-25T17:26:31;30.70;58.50
25320;DHT22;13256;49.012;8.610;2022-08-25T17:29:01;30.70;58.80
25320;DHT22;13256;49.012;8.610;2022-08-25T17:31:33;30.60;58.90
25320;DHT22;13256;49.012;8.610;2022-08-25T17:34:08;30.60;59.20
25320;DHT22;13256;49.012;8.610;2022-08-25T17:36:39;30.50;59.60
25320;DHT22;13256;49.012;8.610;2022-08-25T17:39:10;30.40;59.90
25320;DHT22;13256;49.012;8.610;2022-08-25T17:41:37;30.40;60.60
25320;DHT22;13256;49.012;8.610;2022-08-25T17:44:08;30.30;60.70
25320;DHT22;13256;49.012;8.610;2022-08-25T17:46:36;30.30;60.70
25320;DHT22;13256;49.012;8.610;2022-08-25T17:49:10;30.20;60.50
25320;DHT22;13256;49.012;8.610;2022-08-25T17:51:39;30.10;60.90
25320;DHT22;13256;49.012;8.610;2022-08-25T17:54:12;30.10;61.20
25320;DHT22;13256;49.012;8.610;2022-08-25T17:56:40;30.00;61.30
25320;DHT22;13256;49.012;8.610;2022-08-25T17:59:07;29.90;61.50
25320;DHT22;13256;49.012;8.610;2022-08-25T18:01:35;29.90;61.70
25320;DHT22;13256;49.012;8.610;2022-08-25T18:04:10;29.80;61.80
25320;DHT22;13256;49.012;8.610;2022-08-25T18:06:48;29.80;62.30
25320;DHT22;13256;49.012;8.610;2022-08-25T18:09:15;29.70;62.50
25320;DHT22;13256;49.012;8.610;2022-08-25T18:11:44;29.60;63.20
25320;DHT22;13256;49.012;8.610;2022-08-25T18:14:12;29.40;63.80
25320;DHT22;13256;49.012;8.610;2022-08-25T18:16:43;29.30;64.70
25320;DHT22;13256;49.012;8.610;2022-08-25T18:19:11;29.10;65.00
25320;DHT22;13256;49.012;8.610;2022-08-25T18:21:40;28.90;65.60
25320;DHT22;13256;49.012;8.610;2022-08-25T18:24:09;28.80;66.70
25320;DHT22;13256;49.012;8.610;2022-08-25T18:26:39;28.60;67.50
25320;DHT22;13256;49.012;8.610;2022-08-25T18:29:07;28.40;68.40
25320;DHT22;13256;49.012;8.610;2022-08-25T18:31:39;28.20;69.30
25320;DHT22;13256;49.012;8.610;2022-08-25T18:34:10;28.00;70.70
25320;DHT22;13256;49.012;8.610;2022-08-25T18:36:38;27.90;70.40
25320;DHT22;13256;49.012;8.610;2022-08-25T18:39:11;27.70;71.10
25320;DHT22;13256;49.012;8.610;2022-08-25T18:42:04;27.60;71.50
25320;DHT22;13256;49.012;8.610;2022-08-25T18:44:33;27.50;72.00